Time;durP1;ratioP1;P1;durP2;ratioP2;P2;SDS_P1;SDS_P2;PMS_P1;PMS_P2;Temp;Humidity;BMP_temperature;BMP_pressure;BME280_temperature;BME280_humidity;BME280_pressure;Samples;Min_cycle;Max_cycle;Signal;HPM_P1;HPM_P2
2021/07/09 00:01:23;;;;;;;;;;;;;;;13.83;84.86;102346.03;5052707;28;20094;-77
2021/07/09 00:03:49;;;;;;;23.35;12.93;;;;;;;13.81;84.91;102350.41;5055003;28;19916;-77
2021/07/09 00:06:14;;;;;;;28.00;13.05;;;;;;;13.77;85.39;102351.16;5053596;28;20487;-76
2021/07/09 00:08:40;;;;;;;26.73;13.35;;;;;;;13.75;85.05;102346.69;5053573;28;20083;-78
2021/07/09 00:11:06;;;;;;;22.45;13.57;;;;;;;13.74;85.26;102351.09;5055904;28;20041;-77
2021/07/09 00:13:32;;;;;;;24.65;13.25;;;;;;;13.71;85.52;102352.75;5054711;28;20028;-77
2021/07/09 00:15:57;;;;;;;28.92;16.08;;;;;;;13.66;85.98;102352.63;5056483;28;20372;-78
2021/07/09 00:18:24;;;;;;;27.92;13.30;;;;;;;13.59;86.00;102343.63;5056195;28;20025;-76
2021/07/09 00:20:49;;;;;;;26.92;13.90;;;;;;;13.55;86.25;102339.09;5054107;28;20029;-78
2021/07/09 00:23:15;;;;;;;26.88;14.13;;;;;;;13.53;86.41;102335.50;5056097;28;20048;-77
2021/07/09 00:25:41;;;;;;;20.70;11.73;;;;;;;13.56;85.11;102330.28;5036544;28;20208;-77
2021/07/09 00:28:06;;;;;;;18.75;11.10;;;;;;;13.58;85.37;102328.59;5055280;28;20044;-77
2021/07/09 00:30:31;;;;;;;18.38;11.43;;;;;;;13.61;84.87;102328.66;5053423;28;20027;-77
2021/07/09 00:32:57;;;;;;;26.25;13.68;;;;;;;13.59;85.51;102332.13;5056251;28;20028;-77
2021/07/09 00:35:23;;;;;;;21.10;12.82;;;;;;;13.54;86.05;102320.50;5055273;28;20021;-78
2021/07/09 00:37:48;;;;;;;20.67;12.18;;;;;;;13.49;85.69;102323.91;5055197;28;20498;-76
2021/07/09 00:40:15;;;;;;;25.60;12.98;;;;;;;13.48;85.86;102323.88;5055578;28;20467;-78
2021/07/09 00:42:41;;;;;;;20.58;12.57;;;;;;;13.44;86.55;102325.56;5054205;28;20036;-78
2021/07/09 00:45:08;;;;;;;21.23;12.40;;;;;;;13.41;86.48;102330.75;5053174;28;20036;-77
2021/07/09 00:47:34;;;;;;;24.85;12.43;;;;;;;13.37;86.61;102327.97;5050747;28;20040;-78
2021/07/09 00:50:00;;;;;;;22.90;12.05;;;;;;;13.37;86.61;102336.78;5049224;28;20032;-76
2021/07/09 00:52:25;;;;;;;25.42;12.77;;;;;;;13.35;86.51;102341.13;5052043;28;20118;-77
2021/07/09 00:54:51;;;;;;;21.63;12.35;;;;;;;13.32;87.19;102341.94;5049700;28;20071;-78
2021/07/09 00:57:17;;;;;;;24.98;13.75;;;;;;;13.30;87.03;102340.97;5046401;28;20207;-77
2021/07/09 00:59:43;;;;;;;21.45;11.98;;;;;;;13.28;86.83;102340.03;5048037;28;20469;-76
2021/07/09 01:02:09;;;;;;;21.35;11.80;;;;;;;13.27;86.61;102335.59;5051236;28;20029;-76
2021/07/09 01:04:56;;;;;;;24.60;12.80;;;;;;;13.28;86.44;102328.56;5050420;28;20045;-77
2021/07/09 01:07:24;;;;;;;22.48;12.50;;;;;;;13.27;86.59;102330.31;5051432;28;20119;-76
2021/07/09 01:09:50;;;;;;;23.70;13.25;;;;;;;13.25;86.79;102328.47;5034686;28;20032;-78
2021/07/09 01:12:16;;;;;;;21.08;12.57;;;;;;;13.23;86.52;102330.19;5044838;28;20060;-77
2021/07/09 01:14:42;;;;;;;22.58;12.13;;;;;;;13.21;86.62;102331.88;5052416;28;20041;-78
2021/07/09 01:17:27;;;;;;;22.10;11.55;;;;;;;13.21;86.38;102337.16;5050825;28;20098;-77
2021/07/09 01:19:53;;;;;;;21.48;11.80;;;;;;;13.20;86.63;102336.28;5052529;28;20033;-76
2021/07/09 01:22:19;;;;;;;22.33;13.15;;;;;;;13.18;86.94;102331.81;5049140;28;20025;-77
2021/07/09 01:24:44;;;;;;;25.00;12.73;;;;;;;13.15;86.71;102338.78;5045552;28;20147;-76
2021/07/09 01:27:10;;;;;;;25.90;13.02;;;;;;;13.13;86.91;102335.19;5052484;28;20028;-77
2021/07/09 01:29:35;;;;;;;22.60;12.35;;;;;;;13.10;87.21;102331.56;5051009;28;20036;-75
2021/07/09 01:32:01;;;;;;;24.50;12.57;;;;;;;13.07;87.08;102337.66;5051718;28;20049;-77
2021/07/09 01:34:28;;;;;;;23.92;13.55;;;;;;;13.03;87.24;102335.75;5050349;28;20024;-77
2021/07/09 01:37:15;;;;;;;22.90;12.38;;;;;;;13.00;86.82;102338.31;5051985;28;20029;-77
2021/07/09 01:39:56;;;;;;;19.98;11.65;;;;;;;12.98;86.69;102334.72;5050289;28;20099;-76
2021/07/09 01:42:22;;;;;;;22.08;11.82;;;;;;;12.98;86.51;102340.00;5051438;28;20487;-78
2021/07/09 01:44:47;;;;;;;20.77;11.20;;;;;;;12.99;86.55;102337.44;5050474;28;20056;-76
2021/07/09 01:47:13;;;;;;;24.70;12.95;;;;;;;13.01;86.75;102344.50;5051385;28;20116;-78
2021/07/09 01:50:11;;;;;;;20.52;11.15;;;;;;;13.04;86.57;102341.97;5051645;28;20115;-77
2021/07/09 01:52:36;;;;;;;21.67;12.30;;;;;;;13.07;85.90;102339.41;5049130;28;20459;-77
2021/07/09 01:55:22;;;;;;;25.13;14.00;;;;;;;13.14;86.67;102342.28;5051268;28;20031;-78
2021/07/09 01:57:47;;;;;;;28.02;13.65;;;;;;;13.12;87.01;102338.69;5045861;28;20099;-75
2021/07/09 02:00:21;;;;;;;24.20;13.50;;;;;;;13.08;86.91;102335.91;5043903;28;20032;-77
2021/07/09 02:02:47;;;;;;;25.42;12.98;;;;;;;13.04;86.87;102334.03;5040667;28;20511;-76
2021/07/09 02:05:16;;;;;;;27.50;12.43;;;;;;;13.00;86.72;102327.75;5052318;28;20037;-77
2021/07/09 02:07:46;;;;;;;27.90;14.75;;;;;;;12.97;87.08;102327.66;5046875;28;20120;-77
2021/07/09 02:10:14;;;;;;;26.58;14.07;;;;;;;12.93;87.37;102325.78;5036405;28;20053;-76
2021/07/09 02:12:40;;;;;;;34.50;14.38;;;;;;;12.88;87.36;102332.66;5049051;28;20029;-75
2021/07/09 02:15:46;;;;;;;26.48;14.02;;;;;;;12.86;87.00;102322.06;5053380;28;20056;-77
2021/07/09 02:18:16;;;;;;;26.90;13.70;;;;;;;12.86;86.89;102323.78;5048004;28;20032;-77
2021/07/09 02:21:02;;;;;;;24.25;12.77;;;;;;;12.84;86.62;102325.50;5033484;28;20721;-77
2021/07/09 02:23:27;;;;;;;30.98;14.82;;;;;;;12.79;87.37;102322.69;5054108;28;20113;-77
2021/07/09 02:25:53;;;;;;;30.27;14.80;;;;;;;12.74;87.54;102327.84;5050904;28;20457;-78
2021/07/09 02:28:22;;;;;;;31.33;14.57;;;;;;;12.68;87.67;102319.72;5047717;28;20017;-79
2021/07/09 02:30:47;;;;;;;36.38;15.18;;;;;;;12.66;88.11;102326.69;5049870;28;20036;-78
2021/07/09 02:33:20;;;;;;;29.85;14.32;;;;;;;12.62;88.02;102323.06;5053104;28;20040;-76
2021/07/09 02:35:45;;;;;;;30.60;13.70;;;;;;;12.62;87.64;102325.69;5047537;28;20025;-77
2021/07/09 02:38:11;;;;;;;32.65;14.70;;;;;;;12.58;87.96;102318.53;5046763;28;20095;-77
2021/07/09 02:40:39;;;;;;;34.55;15.00;;;;;;;12.58;88.23;102315.00;5049634;28;20112;-77
2021/07/09 02:43:06;;;;;;;36.85;15.50;;;;;;;12.56;88.42;102319.31;5049677;28;20025;-76
2021/07/09 02:45:51;;;;;;;30.95;15.45;;;;;;;12.54;88.19;102323.66;5048459;28;20729;-78
2021/07/09 02:48:18;;;;;;;28.83;14.02;;;;;;;12.52;88.35;102321.00;5049110;28;20067;-77
2021/07/09 02:50:43;;;;;;;36.97;15.85;;;;;;;12.51;88.68;102320.91;5048441;28;20506;-76
2021/07/09 02:53:09;;;;;;;29.70;14.90;;;;;;;12.49;88.58;102315.59;5050171;28;20021;-78
2021/07/09 02:55:35;;;;;;;28.80;13.43;;;;;;;12.48;88.38;102322.63;5050028;28;20036;-76
2021/07/09 02:58:00;;;;;;;32.80;14.82;;;;;;;12.50;87.92;102329.69;5052966;28;20025;-75
2021/07/09 03:00:26;;;;;;;35.97;15.05;;;;;;;12.50;88.55;102319.13;5046972;28;20099;-76
2021/07/09 03:02:52;;;;;;;38.92;15.40;;;;;;;12.50;88.81;102313.84;5046334;28;20045;-78
2021/07/09 03:05:17;;;;;;;35.15;15.70;;;;;;;12.50;88.58;102324.41;5029561;28;20048;-78
2021/07/09 03:07:43;;;;;;;31.60;13.68;;;;;;;12.52;88.05;102322.72;5024690;28;20048;-77
2021/07/09 03:10:29;;;;;;;37.38;14.85;;;;;;;12.55;88.17;102328.13;5029202;28;20499;-77
2021/07/09 03:12:55;;;;;;;34.42;14.38;;;;;;;12.55;88.14;102325.47;5013929;28;20132;-77
2021/07/09 03:15:20;;;;;;;31.58;14.95;;;;;;;12.54;88.10;102321.91;5029899;28;20471;-78
2021/07/09 03:17:45;;;;;;;31.58;14.20;;;;;;;12.54;88.27;102323.66;5028605;28;20124;-78
2021/07/09 03:20:11;;;;;;;38.72;16.17;;;;;;;12.52;88.22;102326.28;5029025;28;20537;-77
2021/07/09 03:22:38;;;;;;;31.05;13.50;;;;;;;12.50;88.08;102317.38;5029706;28;20021;-76
2021/07/09 03:25:43;;;;;;;42.03;15.68;;;;;;;12.50;88.29;102319.13;5030017;28;20045;-77
2021/07/09 03:28:09;;;;;;;30.52;14.18;;;;;;;12.46;88.43;102308.47;5029966;28;20108;-77
2021/07/09 03:30:34;;;;;;;32.88;14.85;;;;;;;12.47;88.11;102310.25;5031420;28;20017;-76
2021/07/09 03:33:00;;;;;;;34.13;14.88;;;;;;;12.45;88.21;102311.97;5029696;28;20042;-76
2021/07/09 03:35:25;;;;;;;32.03;14.70;;;;;;;12.45;88.37;102308.41;5028123;28;20022;-76
2021/07/09 03:37:50;;;;;;;35.15;15.23;;;;;;;12.43;88.40;102305.72;5028663;28;20112;-78
2021/07/09 03:40:16;;;;;;;30.92;15.00;;;;;;;12.42;88.54;102311.84;5028708;28;20475;-76
2021/07/09 03:42:41;;;;;;;36.13;16.33;;;;;;;12.43;89.03;102308.38;5028959;28;20036;-77
2021/07/09 03:45:08;;;;;;;39.63;17.05;;;;;;;12.44;89.60;102311.94;5029319;28;20041;-76
2021/07/09 03:47:33;;;;;;;44.72;18.58;;;;;;;12.45;89.59;102317.25;5026750;28;20034;-77
2021/07/09 03:49:58;;;;;;;42.13;17.08;;;;;;;12.46;89.67;102313.75;5010009;28;20040;-77
2021/07/09 03:52:24;;;;;;;36.45;15.32;;;;;;;12.47;89.59;102314.66;5029434;28;20112;-77
2021/07/09 03:54:49;;;;;;;41.72;16.45;;;;;;;12.48;89.65;102316.47;5028752;28;20029;-77
2021/07/09 03:57:15;;;;;;;35.55;16.15;;;;;;;12.50;89.28;102313.84;5029387;28;20025;-77
2021/07/09 03:59:40;;;;;;;46.53;18.70;;;;;;;12.51;89.73;102320.91;5026053;28;20040;-79
2021/07/09 04:02:05;;;;;;;44.85;18.33;;;;;;;12.53;89.89;102327.16;5026979;28;20018;-77
2021/07/09 04:04:31;;;;;;;40.33;17.42;;;;;;;12.58;90.10;102326.44;5046450;28;20055;-77
2021/07/09 04:06:56;;;;;;;47.00;17.45;;;;;;;12.67;90.23;102317.03;5047837;28;20037;-75
2021/07/09 04:09:22;;;;;;;47.70;18.17;;;;;;;12.73;90.30;102318.13;5048124;28;20041;-77
2021/07/09 04:11:47;;;;;;;47.17;17.33;;;;;;;12.81;90.18;102321.88;5046991;28;20025;-75
2021/07/09 04:14:13;;;;;;;34.00;15.07;;;;;;;12.87;89.80;102330.84;5046388;28;20387;-78
2021/07/09 04:16:39;;;;;;;37.65;17.02;;;;;;;12.92;89.85;102329.25;5050972;28;20029;-78
2021/07/09 04:19:04;;;;;;;40.38;18.42;;;;;;;12.94;89.83;102335.47;5048974;28;20063;-77
2021/07/09 04:21:29;;;;;;;36.55;16.92;;;;;;;12.96;89.59;102339.97;5051146;28;20027;-77
2021/07/09 04:23:55;;;;;;;38.80;17.17;;;;;;;12.96;89.72;102326.75;5051083;28;20033;-77
2021/07/09 04:26:20;;;;;;;39.28;17.48;;;;;;;13.01;89.50;102328.63;5050230;28;20041;-77
2021/07/09 04:28:46;;;;;;;38.67;17.13;;;;;;;13.06;89.61;102324.38;5051578;28;20471;-77
2021/07/09 04:31:12;;;;;;;36.72;16.17;;;;;;;13.10;89.58;102328.91;5052452;28;20083;-76
2021/07/09 04:33:37;;;;;;;34.33;16.23;;;;;;;13.14;89.26;102329.06;5044452;28;20410;-77
2021/07/09 04:36:03;;;;;;;33.05;15.30;;;;;;;13.26;89.32;102335.56;5052739;28;20032;-76
2021/07/09 04:38:29;;;;;;;32.65;15.85;;;;;;;13.36;89.36;102329.75;5048980;28;20112;-76
2021/07/09 04:40:54;;;;;;;32.47;14.10;;;;;;;13.44;88.88;102328.22;5051817;28;20028;-77
2021/07/09 04:43:19;;;;;;;28.45;15.15;;;;;;;13.56;88.77;102334.69;5052478;28;20497;-76
2021/07/09 04:45:45;;;;;;;30.20;14.90;;;;;;;13.66;88.76;102332.34;5052957;28;20033;-76
2021/07/09 04:48:10;;;;;;;25.25;13.57;;;;;;;13.78;88.75;102330.88;5050998;28;20055;-75
2021/07/09 04:50:36;;;;;;;32.22;14.82;;;;;;;13.92;88.71;102336.56;5051013;28;20034;-75
2021/07/09 04:53:03;;;;;;;26.92;14.38;;;;;;;14.03;88.20;102332.44;5050900;28;20033;-77
2021/07/09 04:55:29;;;;;;;29.08;14.52;;;;;;;14.15;87.76;102330.09;5045977;28;20128;-76
2021/07/09 04:57:55;;;;;;;28.70;14.80;;;;;;;14.27;87.65;102333.91;5035105;28;20064;-77
2021/07/09 05:00:22;;;;;;;30.80;14.85;;;;;;;14.40;87.71;102333.38;5039203;28;20033;-75
2021/07/09 05:02:47;;;;;;;24.95;13.95;;;;;;;14.53;87.35;102333.66;5043934;28;20396;-76
2021/07/09 05:05:34;;;;;;;30.35;14.10;;;;;;;14.66;87.02;102336.69;5049058;28;20031;-76
2021/07/09 05:07:59;;;;;;;26.23;14.15;;;;;;;14.86;86.73;102343.31;5047883;28;20037;-76
2021/07/09 05:10:24;;;;;;;24.75;13.80;;;;;;;15.04;86.23;102341.06;5051668;28;20435;-77
2021/07/09 05:12:50;;;;;;;23.17;13.25;;;;;;;15.20;85.82;102342.31;5055034;28;20024;-76
2021/07/09 05:15:15;;;;;;;25.55;13.63;;;;;;;15.41;85.68;102344.53;5054443;28;20112;-77
2021/07/09 05:17:42;;;;;;;24.70;13.27;;;;;;;15.64;85.55;102341.41;5046955;28;20353;-76
2021/07/09 05:20:29;;;;;;;20.25;11.63;;;;;;;15.87;85.68;102343.66;5049583;28;20044;-77
2021/07/09 05:22:54;;;;;;;20.67;11.70;;;;;;;16.12;85.29;102335.28;5039738;28;20478;-76
2021/07/09 05:25:20;;;;;;;23.80;11.32;;;;;;;16.32;83.75;102343.59;5045083;28;20036;-77
2021/07/09 05:27:45;;;;;;;20.52;12.60;;;;;;;16.33;82.33;102341.81;5040293;28;20041;-79
2021/07/09 05:30:12;;;;;;;24.02;12.95;;;;;;;16.35;81.98;102346.28;5042719;28;20036;-78
2021/07/09 05:32:39;;;;;;;19.27;12.02;;;;;;;16.52;81.82;102343.94;5024543;28;20053;-77
2021/07/09 05:35:25;;;;;;;21.38;13.32;;;;;;;16.65;81.58;102349.44;5040187;28;20330;-77
2021/07/09 05:37:50;;;;;;;24.80;14.13;;;;;;;16.68;81.62;102346.81;5040554;28;20115;-76
2021/07/09 05:40:16;;;;;;;29.13;13.98;;;;;;;16.68;81.82;102353.03;5040526;28;20032;-78
2021/07/09 05:42:42;;;;;;;23.45;13.60;;;;;;;16.80;79.98;102346.13;5039097;28;20020;-78
2021/07/09 05:45:07;;;;;;;17.10;11.32;;;;;;;17.01;80.99;102350.84;5041172;28;20437;-80
2021/07/09 05:47:33;;;;;;;25.85;13.15;;;;;;;17.08;80.41;102349.19;5050136;28;20382;-81
2021/07/09 05:49:59;;;;;;;18.50;13.02;;;;;;;17.21;78.72;102348.47;5050984;28;20111;-78
2021/07/09 05:52:24;;;;;;;20.88;12.20;;;;;;;17.44;78.25;102340.78;5050728;28;20029;-78
2021/07/09 05:54:52;;;;;;;24.60;12.95;;;;;;;17.65;77.80;102345.47;5050843;28;20036;-77
2021/07/09 05:57:17;;;;;;;22.95;13.50;;;;;;;17.74;76.54;102350.00;5052208;28;20033;-77
2021/07/09 05:59:42;;;;;;;21.50;12.60;;;;;;;17.86;76.01;102355.47;5045866;28;20024;-77
2021/07/09 06:02:08;;;;;;;20.27;12.45;;;;;;;18.02;75.77;102347.66;5048178;28;20486;-77
2021/07/09 06:04:33;;;;;;;20.85;12.48;;;;;;;18.27;74.91;102340.81;5051282;28;20049;-78
2021/07/09 06:06:59;;;;;;;20.33;12.48;;;;;;;18.63;73.79;102344.63;5050420;28;20108;-80
2021/07/09 06:09:24;;;;;;;24.35;14.65;;;;;;;18.81;71.46;102333.19;5050224;28;20021;-79
2021/07/09 06:11:50;;;;;;;24.98;14.20;;;;;;;18.83;72.45;102339.44;5053072;28;20065;-80
2021/07/09 06:14:18;;;;;;;22.65;13.95;;;;;;;18.96;71.42;102347.53;5052097;28;20036;-80
2021/07/09 06:16:46;;;;;;;23.77;14.85;;;;;;;19.21;69.58;102346.78;5048893;28;20036;-81
2021/07/09 06:19:11;;;;;;;25.33;14.70;;;;;;;19.69;69.82;102340.72;5052664;28;20021;-80
2021/07/09 06:21:36;;;;;;;24.73;13.73;;;;;;;20.02;67.13;102329.25;5049301;28;20044;-77
2021/07/09 06:24:02;;;;;;;24.77;15.65;;;;;;;19.94;67.86;102339.03;5049979;28;20036;-77
2021/07/09 06:26:27;;;;;;;16.98;12.48;;;;;;;20.41;65.54;102331.03;5049671;28;20032;-77
2021/07/09 06:28:53;;;;;;;23.20;14.43;;;;;;;20.74;64.93;102334.59;5046945;28;20079;-77
2021/07/09 06:31:19;;;;;;;16.90;12.63;;;;;;;21.08;62.15;102324.69;5049803;28;20453;-77
2021/07/09 06:33:45;;;;;;;17.02;11.40;;;;;;;21.43;61.84;102326.28;5051140;28;20049;-77
2021/07/09 06:36:10;;;;;;;12.48;10.70;;;;;;;21.08;60.95;102322.00;5048483;28;20033;-78
2021/07/09 06:38:36;;;;;;;16.73;10.95;;;;;;;20.70;62.86;102331.91;5051860;28;20044;-78
2021/07/09 06:41:01;;;;;;;25.92;12.18;;;;;;;20.21;64.90;102329.22;5047185;28;20174;-76
2021/07/09 06:43:27;;;;;;;17.52;10.90;;;;;;;19.73;65.62;102331.81;5049692;28;20395;-77
2021/07/09 06:45:52;;;;;;;15.10;9.95;;;;;;;19.40;66.51;102338.84;5048340;28;20124;-77
2021/07/09 06:48:38;;;;;;;16.52;10.63;;;;;;;19.97;65.58;102324.78;5051304;28;20028;-77
2021/07/09 06:51:03;;;;;;;16.92;11.55;;;;;;;20.65;64.41;102325.66;5047833;28;20064;-77
2021/07/09 06:53:29;;;;;;;18.17;9.52;;;;;;;21.56;61.84;102322.69;5045405;28;20048;-76
2021/07/09 06:55:54;;;;;;;10.50;8.63;;;;;;;21.85;59.27;102321.66;5044838;28;20033;-77
2021/07/09 06:58:20;;;;;;;14.15;8.82;;;;;;;22.02;58.88;102324.19;5038981;28;20498;-77
2021/07/09 07:00:45;;;;;;;20.33;10.85;;;;;;;22.13;58.55;102318.75;5043829;28;20040;-76
2021/07/09 07:03:10;;;;;;;16.40;10.40;;;;;;;22.28;57.64;102322.22;5048194;28;20047;-76
2021/07/09 07:05:36;;;;;;;18.23;10.80;;;;;;;22.22;58.76;102318.66;5045891;28;20048;-77
2021/07/09 07:08:19;;;;;;;14.32;10.63;;;;;;;22.37;57.43;102316.81;5045064;28;20080;-78
2021/07/09 07:10:45;;;;;;;13.30;8.20;;;;;;;22.94;55.53;102323.34;5044094;28;20045;-76
2021/07/09 07:13:11;;;;;;;12.88;7.75;;;;;;;23.14;54.24;102320.47;5047909;28;20075;-77
2021/07/09 07:15:58;;;;;;;11.80;8.13;;;;;;;23.21;54.76;102330.19;5028810;28;20033;-78
2021/07/09 07:18:24;;;;;;;14.80;9.00;;;;;;;23.07;55.28;102316.94;5046513;28;20596;-77
2021/07/09 07:21:09;;;;;;;14.40;8.57;;;;;;;23.14;55.06;102332.09;5048467;28;20021;-78
2021/07/09 07:23:34;;;;;;;14.60;9.30;;;;;;;23.02;54.60;102322.38;5047049;28;20104;-77
2021/07/09 07:26:00;;;;;;;10.60;9.07;;;;;;;23.36;53.22;102321.97;5046928;28;20103;-77
2021/07/09 07:28:26;;;;;;;11.52;8.77;;;;;;;23.39;52.99;102319.22;5046242;28;20487;-78
2021/07/09 07:31:07;;;;;;;16.52;9.65;;;;;;;23.13;54.05;102324.94;5047226;28;20033;-77
2021/07/09 07:33:32;;;;;;;15.60;9.27;;;;;;;23.39;53.22;102331.78;5043735;28;20498;-76
2021/07/09 07:35:58;;;;;;;12.60;8.40;;;;;;;22.71;54.72;102324.50;5046140;28;20043;-78
2021/07/09 07:38:23;;;;;;;15.85;8.38;;;;;;;23.06;53.04;102331.25;5045174;28;20056;-77
2021/07/09 07:40:49;;;;;;;10.98;6.93;;;;;;;23.29;53.21;102336.41;5034632;28;20108;-76
2021/07/09 07:43:15;;;;;;;21.08;8.82;;;;;;;23.16;53.91;102334.78;5033315;28;20034;-77
2021/07/09 07:45:41;;;;;;;14.45;7.15;;;;;;;23.20;54.54;102333.81;5035752;28;20068;-77
2021/07/09 07:48:07;;;;;;;11.18;7.43;;;;;;;23.62;53.58;102327.91;5044728;28;20025;-77
2021/07/09 07:50:32;;;;;;;14.65;9.00;;;;;;;23.67;53.73;102326.00;5033465;28;20031;-78
2021/07/09 07:52:57;;;;;;;11.73;8.40;;;;;;;23.68;54.51;102314.34;5035651;28;20033;-77
2021/07/09 07:55:24;;;;;;;10.57;8.20;;;;;;;23.41;54.44;102335.31;5029586;28;20023;-76
2021/07/09 07:57:49;;;;;;;13.63;8.70;;;;;;;23.09;54.40;102331.22;5051547;28;20109;-76
2021/07/09 08:00:15;;;;;;;14.50;8.68;;;;;;;23.06;53.43;102331.25;5044854;28;20108;-76
2021/07/09 08:02:41;;;;;;;16.92;8.85;;;;;;;22.76;55.53;102336.06;5046886;28;20032;-76
2021/07/09 08:05:08;;;;;;;13.25;8.65;;;;;;;22.61;56.34;102342.47;5048198;28;20474;-78
2021/07/09 08:07:34;;;;;;;14.45;9.98;;;;;;;22.15;57.41;102343.75;5048622;28;20394;-76
2021/07/09 08:09:59;;;;;;;13.70;8.75;;;;;;;21.80;58.75;102343.97;5045141;28;20021;-77
2021/07/09 08:12:41;;;;;;;17.52;8.73;;;;;;;21.56;59.73;102338.75;5046589;28;20055;-77
2021/07/09 08:15:07;;;;;;;13.93;8.52;;;;;;;21.43;59.92;102337.00;5045115;28;20040;-77
2021/07/09 08:17:32;;;;;;;24.70;10.55;;;;;;;21.42;59.93;102335.25;5048966;28;20037;-77
2021/07/09 08:19:58;;;;;;;17.08;9.55;;;;;;;21.16;61.37;102338.03;5050234;28;20086;-76
2021/07/09 08:22:24;;;;;;;15.07;9.23;;;;;;;21.15;60.92;102337.16;5032083;28;20033;-76
2021/07/09 08:24:49;;;;;;;13.48;9.90;;;;;;;21.63;60.16;102336.06;5051466;28;20025;-75
2021/07/09 08:27:14;;;;;;;14.32;7.95;;;;;;;21.87;58.11;102335.91;5050146;28;20033;-76
2021/07/09 08:29:40;;;;;;;12.43;8.70;;;;;;;21.78;58.32;102329.72;5051022;28;20028;-77
2021/07/09 08:32:06;;;;;;;16.20;8.48;;;;;;;21.71;59.64;102327.06;5051899;28;20021;-76
2021/07/09 08:34:31;;;;;;;13.05;9.13;;;;;;;21.74;59.27;102331.53;5048448;28;20028;-76
2021/07/09 08:36:57;;;;;;;12.60;8.68;;;;;;;22.56;58.35;102323.75;5049913;28;20463;-76
2021/07/09 08:39:23;;;;;;;10.98;8.02;;;;;;;23.33;56.04;102331.84;5044250;28;20049;-78
2021/07/09 08:42:04;;;;;;;14.80;7.63;;;;;;;23.06;54.42;102323.19;5045660;28;21452;-77
2021/07/09 08:44:29;;;;;;;11.40;8.23;;;;;;;22.73;54.39;102323.59;5045964;28;20025;-75
2021/07/09 08:47:14;;;;;;;13.10;6.88;;;;;;;22.81;55.39;102331.53;5049138;28;20024;-77
2021/07/09 08:49:42;;;;;;;11.73;6.65;;;;;;;22.92;54.57;102325.16;5048521;28;20105;-76
2021/07/09 08:52:08;;;;;;;12.05;6.78;;;;;;;23.26;54.64;102317.63;5032264;28;20506;-78
2021/07/09 08:54:34;;;;;;;10.07;6.97;;;;;;;23.30;53.57;102313.09;5048895;28;20032;-77
2021/07/09 08:56:59;;;;;;;12.48;6.55;;;;;;;23.77;54.51;102310.66;5051232;28;20063;-76
2021/07/09 08:59:25;;;;;;;8.27;6.78;;;;;;;24.50;51.13;102313.94;5037442;28;20029;-77
2021/07/09 09:02:10;;;;;;;8.70;5.93;;;;;;;24.31;52.10;102318.75;5049211;28;20383;-77
2021/07/09 09:04:37;;;;;;;7.32;5.95;;;;;;;24.35;49.36;102308.81;5047604;28;20056;-76
2021/07/09 09:07:02;;;;;;;10.40;5.13;;;;;;;24.84;50.80;102313.31;5048908;28;20483;-77
2021/07/09 09:09:48;;;;;;;7.63;5.00;;;;;;;25.15;46.85;102301.91;5044705;28;20028;-77
2021/07/09 09:12:33;;;;;;;13.73;6.03;;;;;;;25.65;47.60;102307.13;5049467;28;20031;-77
2021/07/09 09:15:22;;;;;;;10.27;5.90;;;;;;;26.39;45.80;102304.41;5047195;28;20657;-77
2021/07/09 09:17:48;;;;;;;8.07;5.70;;;;;;;26.66;45.41;102308.19;5047140;28;20048;-77
2021/07/09 09:20:15;;;;;;;9.18;6.20;;;;;;;26.42;47.22;102307.94;5032614;28;20029;-77
2021/07/09 09:22:49;;;;;;;9.95;6.00;;;;;;;26.40;46.79;102301.69;5046045;28;20388;-77
2021/07/09 09:25:17;;;;;;;8.40;4.05;;;;;;;27.01;43.60;102308.13;5045782;28;20124;-78
2021/07/09 09:28:04;;;;;;;6.97;3.53;;;;;;;26.65;41.47;102303.69;5050103;28;20028;-76
2021/07/09 09:30:31;;;;;;;7.15;4.57;;;;;;;26.01;44.78;102304.44;5043530;28;20423;-77
2021/07/09 09:33:14;;;;;;;6.78;4.13;;;;;;;26.21;45.36;102306.69;5048787;28;20087;-76
2021/07/09 09:35:43;;;;;;;9.30;4.93;;;;;;;26.79;43.59;102313.25;5049920;28;20052;-77
2021/07/09 09:38:11;;;;;;;7.85;4.90;;;;;;;27.13;42.62;102302.38;5049687;28;20732;-75
2021/07/09 09:40:40;;;;;;;8.95;5.40;;;;;;;27.29;43.21;102304.59;5047987;28;20045;-76
2021/07/09 09:43:15;;;;;;;7.70;5.60;;;;;;;28.14;42.91;102294.69;5037864;28;20036;-77
2021/07/09 09:45:49;;;;;;;7.82;5.10;;;;;;;27.64;43.26;102299.94;5047552;28;20033;-78
2021/07/09 09:48:15;;;;;;;8.57;5.82;;;;;;;28.13;40.54;102301.03;5044382;28;20028;-78
2021/07/09 09:50:57;;;;;;;9.00;5.50;;;;;;;28.15;40.45;102299.19;5045755;28;20040;-77
2021/07/09 09:53:54;;;;;;;10.90;5.60;;;;;;;28.26;40.24;102299.69;5048068;28;20033;-75
2021/07/09 09:56:43;;;;;;;9.93;5.90;;;;;;;28.55;40.41;102297.75;5045019;28;20062;-78
2021/07/09 09:59:17;;;;;;;9.55;5.78;;;;;;;28.22;41.11;102300.72;5048370;28;20035;-76
2021/07/09 10:02:07;;;;;;;8.80;6.20;;;;;;;27.07;41.83;102307.94;5044098;28;20052;-78
2021/07/09 10:04:34;;;;;;;8.40;5.00;;;;;;;25.68;47.04;102311.53;5030384;28;20054;-77
2021/07/09 10:07:20;;;;;;;9.60;5.68;;;;;;;25.67;47.99;102307.09;5016195;28;20037;-76
2021/07/09 10:09:46;;;;;;;18.95;5.72;;;;;;;26.72;45.35;102301.75;5033768;28;20044;-76
2021/07/09 10:12:15;;;;;;;7.90;5.43;;;;;;;27.55;41.40;102293.91;5030221;28;20065;-76
2021/07/09 10:15:02;;;;;;;7.35;5.28;;;;;;;27.51;41.69;102303.03;5032934;28;20156;-77
2021/07/09 10:17:49;;;;;;;9.32;5.75;;;;;;;26.28;43.85;102301.13;5034646;28;20057;-77
2021/07/09 10:20:17;;;;;;;11.65;6.55;;;;;;;24.76;48.73;102304.50;5032934;28;20109;-77
2021/07/09 10:22:53;;;;;;;5.95;5.32;;;;;;;25.23;47.59;102299.03;5033210;28;20116;-77
2021/07/09 10:25:39;;;;;;;8.63;5.90;;;;;;;26.47;46.04;102301.53;5038561;28;20463;-76
2021/07/09 10:28:07;;;;;;;14.40;6.28;;;;;;;26.21;43.41;102289.63;5032366;28;20394;-76
2021/07/09 10:30:58;;;;;;;10.20;5.80;;;;;;;25.30;45.93;102286.31;5009468;28;20029;-77
2021/07/09 10:33:35;;;;;;;8.88;5.57;;;;;;;24.23;49.38;102300.06;5030821;28;20033;-78
2021/07/09 10:36:26;;;;;;;8.90;6.13;;;;;;;24.40;50.78;102301.56;5024409;28;20144;-77
2021/07/09 10:38:53;;;;;;;6.65;5.40;;;;;;;25.33;48.41;102287.19;5029022;28;20031;-78
2021/07/09 10:41:20;;;;;;;6.85;4.85;;;;;;;26.05;45.00;102283.72;5031493;28;20037;-78
2021/07/09 10:44:35;;;;;;;6.88;5.47;;;;;;;25.52;46.77;102293.03;5032893;28;20120;-76
2021/07/09 10:47:15;;;;;;;8.68;5.05;;;;;;;25.34;46.90;102285.38;5018277;28;20041;-77
2021/07/09 10:49:49;;;;;;;7.35;4.80;;;;;;;26.27;44.51;102283.16;5026218;28;20029;-76
2021/07/09 10:52:48;;;;;;;5.72;4.55;;;;;;;27.49;42.95;102288.69;5026602;28;20486;-77
2021/07/09 10:55:26;;;;;;;4.13;3.50;;;;;;;28.83;39.90;102283.25;5022038;28;20037;-76
2021/07/09 10:58:07;;;;;;;4.80;4.00;;;;;;;29.32;37.30;102279.63;5019487;28;20044;-77
2021/07/09 11:01:02;;;;;;;6.93;3.78;;;;;;;28.49;37.97;102281.75;5022509;28;20499;-77
2021/07/09 11:03:38;;;;;;;6.88;4.40;;;;;;;26.80;42.86;102288.91;5030197;28;20042;-77
2021/07/09 11:06:15;;;;;;;9.10;5.72;;;;;;;25.44;44.92;102284.25;5035967;28;20400;-77
2021/07/09 11:08:57;;;;;;;15.70;5.63;;;;;;;24.64;46.58;102283.22;5027974;28;20021;-77
2021/07/09 11:11:43;;;;;;;8.70;5.90;;;;;;;25.24;47.63;102280.16;5032104;28;20128;-76
2021/07/09 11:14:31;;;;;;;7.90;6.50;;;;;;;25.28;45.38;102274.72;5035935;28;20052;-77
2021/07/09 11:17:16;;;;;;;10.13;6.57;;;;;;;25.02;47.05;102276.16;5027753;28;20083;-76
2021/07/09 11:19:42;;;;;;;10.13;6.90;;;;;;;24.52;47.91;102289.69;5029706;28;20033;-77
2021/07/09 11:22:10;;;;;;;10.07;7.43;;;;;;;24.16;49.11;102289.41;5028575;28;20087;-77
2021/07/09 11:24:41;;;;;;;8.38;7.38;;;;;;;23.80;48.15;102279.22;5027513;28;20037;-76
2021/07/09 11:27:08;;;;;;;9.30;6.70;;;;;;;23.60;50.15;102281.34;5024557;28;20108;-76